Details From VORY - Rajahmundry
To VOMM - Chennai Intl
Flight Number -
Tags Generated
Created
Modified
Stats Distance 264 nm / 490 km
Max Altitude 0 ft / 0 m
Waypoints 3
Social Downloads 0
Likes 0
Share VATSIM

Download

Looking for another format? Having issues loading an existing format? Contact us
Advertisement - Login to hide

Notes

Generated

Route

VORY MMV62 VOMM

ID Type Via Altitude Latitude Longitude Leg Dist Tot Dist Heading (true) Name
O VORY APT - 0 ft / 0 m 17.10571˚ 81.81162˚ - 0 nm - -
MMV62 FIX - 0 ft / 0 m 13.08353˚ 80.22643˚ 258 nm 258 nm 201° / 201° -
O VOMM APT - 0 ft / 0 m 13.00194˚ 80.16584˚ 6 nm 264 nm 216° / 216° -

Altitude Profile

Advertisement - Login to hide

Weather


0- 5 10 15 20 25 30 35+ Temperature / ° C

Clouds and Precipitation
Forecast for 2018-05-25 06:00 UTC. Updated 24 minutes ago

Ground ~20,000 ft ~40,000 ft Winds

VORY

Details ICAO VORY (RJA)
Name RAJAHMUNDRY
Region India
Timezone Asia/Kolkata (UTC+5.5)
Stats Elevation 151 ft / 46 m (AMSL)
Location 17.110361° 81.818209°
Runways 1
Magnetic Variation 0.644° W

METAR

VORY 250530Z 09006KT 6000 SCT020 34/24 Q1005 NOSIG

Decode

TAF

TAF VORY 250200Z 2503/2512 20004KT 6000 FEW020 SCT100 BECMG 2504/2506 21007KT 6000 FEW020 SCT025 TEMPO 2510/2512 FEW030CB BKN080

Decode

Departure Runways

ID Width Length Bearing (true) Bearing (mag) Surface Threshold Offset Overrun Length
05 150 ft / 46 m 5,714 ft / 1,742 m 53.53° 54.17° Asphalt 0 ft / 0 m 0 ft / 0 m
23 150 ft / 46 m 5,714 ft / 1,742 m 233.54° 234.18° Asphalt 0 ft / 0 m 0 ft / 0 m

VOMM

Details ICAO VOMM (MAA)
Name CHENNAI INTL
Region India
Timezone Asia/Kolkata (UTC+5.5)
Stats Elevation 52 ft / 16 m (AMSL)
Location 12.993860° 80.171442°
Runways 2
Magnetic Variation 1.174° W

METAR

VOMM 250530Z 09009KT 9999 SCT025 BKN100 34/25 Q1005 NOSIG

Decode

TAF

TAF VOMM 242300Z 2500/2606 22005KT 6000 FEW020 SCT100 BECMG 2509/2510 09010KT BECMG 2512/2513 16010KT BECMG 2521/2522 22005KT

Decode

Destination Runways

ID Width Length Bearing (true) Bearing (mag) Surface Threshold Offset Overrun Length
07 148 ft / 45 m 12,003 ft / 3,659 m 68.87° 70.04° Asphalt 0 ft / 0 m 481 ft / 147 m
12 148 ft / 45 m 6,711 ft / 2,046 m 117.77° 118.94° Asphalt 0 ft / 0 m 0 ft / 0 m
25 148 ft / 45 m 12,003 ft / 3,659 m 248.88° 250.05° Asphalt 0 ft / 0 m 492 ft / 150 m
30 148 ft / 45 m 6,711 ft / 2,046 m 297.78° 298.95° Asphalt 1,130 ft / 344 m 0 ft / 0 m

Approach Navaids

Runway Type Ident Frequency Range Bearing (true) Bearing (mag) Slope Elevation
07 Localiser IMAS 110.30 MHz 18 nm / 33 km 68.67° 69.85° - 52 ft / 16 m (AMSL)
07 Glidescope IMAS 110.30 MHz 10 nm / 19 km 68.88° 70.05° 3.00° 52 ft / 16 m (AMSL)
07 DME IMAS 110.30 MHz 18 nm / 33 km - - - 52 ft / 16 m (AMSL)